createdAt,value
2023-02-25T00:01:51.289Z,95787.84
2023-02-25T00:04:29.725Z,95779.97
2023-02-25T00:06:57.907Z,95786.63
2023-02-25T00:09:25.991Z,95781.06
2023-02-25T00:11:54.108Z,95776.31
2023-02-25T00:14:22.343Z,95781.50
2023-02-25T00:16:51.168Z,95777.59
2023-02-25T00:19:19.291Z,95773.13
2023-02-25T00:21:48.846Z,95770.13
2023-02-25T00:24:17.323Z,95763.22
2023-02-25T00:26:45.788Z,95757.03
2023-02-25T00:29:15.983Z,95762.28
2023-02-25T00:31:44.313Z,95739.94
2023-02-25T00:34:12.563Z,95739.97
2023-02-25T00:36:41.024Z,95732.00
2023-02-25T00:39:10.798Z,95737.72
2023-02-25T00:41:39.801Z,95732.81
2023-02-25T00:44:08.368Z,95729.97
2023-02-25T00:46:36.955Z,95713.94
2023-02-25T00:49:05.093Z,95716.13
2023-02-25T00:51:35.184Z,95715.00
2023-02-25T00:54:03.405Z,95708.69
2023-02-25T00:56:32.897Z,95696.34
2023-02-25T00:59:01.183Z,95676.88
2023-02-25T01:01:33.464Z,95667.53
2023-02-25T01:04:02.510Z,95668.16
2023-02-25T01:06:33.758Z,95673.69
2023-02-25T01:09:02.357Z,95676.34
2023-02-25T01:11:34.558Z,95674.41
2023-02-25T01:14:06.930Z,95661.47
2023-02-25T01:16:36.509Z,95642.41
2023-02-25T01:19:07.905Z,95610.53
2023-02-25T01:21:39.087Z,95629.06
2023-02-25T01:24:09.964Z,95627.38
2023-02-25T01:26:42.322Z,95629.91
2023-02-25T01:29:11.868Z,95622.56
2023-02-25T01:31:40.335Z,95616.53
2023-02-25T01:34:11.745Z,95630.47
2023-02-25T01:36:41.573Z,95627.69
2023-02-25T01:39:10.624Z,95622.13
2023-02-25T01:41:43.429Z,95609.97
2023-02-25T01:44:14.647Z,95583.84
2023-02-25T01:46:44.005Z,95584.97
2023-02-25T01:49:16.496Z,95595.88
2023-02-25T01:51:48.671Z,95591.78
2023-02-25T01:54:18.413Z,95588.00
2023-02-25T01:56:51.487Z,95593.22
2023-02-25T01:59:24.384Z,95607.06
2023-02-25T02:01:52.909Z,95585.47
2023-02-25T02:04:22.401Z,95604.34
2023-02-25T02:06:51.765Z,95608.94
2023-02-25T02:09:22.362Z,95602.03
2023-02-25T02:11:53.355Z,95585.78
2023-02-25T02:14:27.030Z,95585.16
2023-02-25T02:17:12.754Z,95578.66
2023-02-25T02:20:00.416Z,95560.63
2023-02-25T02:22:33.842Z,95553.09
2023-02-25T02:25:39.186Z,95552.13
2023-02-25T02:28:48.726Z,95554.88
2023-02-25T02:31:49.474Z,95553.28
2023-02-25T02:34:30.767Z,95549.63
2023-02-25T02:37:08.003Z,95556.66
2023-02-25T02:39:48.651Z,95552.16
2023-02-25T02:42:27.623Z,95561.88
2023-02-25T02:45:03.016Z,95557.19
2023-02-25T02:47:36.237Z,95569.22
2023-02-25T02:50:08.017Z,95562.31
2023-02-25T02:52:40.835Z,95567.97
2023-02-25T02:55:22.242Z,95574.94
2023-02-25T02:57:55.440Z,95582.16
2023-02-25T03:00:27.283Z,95586.88
2023-02-25T03:03:02.845Z,95571.97
2023-02-25T03:05:34.478Z,95579.81
2023-02-25T03:08:09.050Z,95592.19
2023-02-25T03:10:37.494Z,95604.06
2023-02-25T03:13:05.958Z,95610.03
2023-02-25T03:15:35.527Z,95613.84
2023-02-25T03:18:09.042Z,95608.47
2023-02-25T03:20:41.646Z,95609.31
2023-02-25T03:23:13.898Z,95626.47
2023-02-25T03:25:47.870Z,95626.97
2023-02-25T03:28:30.001Z,95647.66
2023-02-25T03:31:06.455Z,95649.78
2023-02-25T03:33:41.344Z,95653.16
2023-02-25T03:36:14.283Z,95662.13
2023-02-25T03:38:46.312Z,95663.41
2023-02-25T03:41:16.615Z,95673.75
2023-02-25T03:43:49.460Z,95682.44
2023-02-25T03:46:20.881Z,95665.44
2023-02-25T03:48:52.386Z,95660.47
2023-02-25T03:51:25.270Z,95666.84
2023-02-25T03:53:53.538Z,95679.34
2023-02-25T03:56:27.712Z,95675.47
2023-02-25T03:58:55.999Z,95674.75
2023-02-25T04:01:29.316Z,95678.09
2023-02-25T04:03:58.900Z,95683.31
2023-02-25T04:06:27.049Z,95686.38
2023-02-25T04:08:55.195Z,95683.66
2023-02-25T04:11:23.871Z,95690.09
2023-02-25T04:13:52.106Z,95689.88
2023-02-25T04:16:21.055Z,95702.63
2023-02-25T04:18:49.399Z,95695.16
2023-02-25T04:21:29.944Z,95688.56
2023-02-25T04:23:58.874Z,95682.84
2023-02-25T04:26:27.155Z,95691.94
2023-02-25T04:28:55.576Z,95712.34
2023-02-25T04:31:24.076Z,95696.25
2023-02-25T04:33:52.391Z,95700.75
2023-02-25T04:36:29.669Z,95711.84
2023-02-25T04:38:59.129Z,95730.13
2023-02-25T04:41:30.932Z,95741.97
2023-02-25T04:43:59.445Z,95751.03
2023-02-25T04:46:27.904Z,95766.03
2023-02-25T04:48:56.021Z,95759.03
2023-02-25T04:51:24.281Z,95768.75
2023-02-25T04:53:54.135Z,95773.53
2023-02-25T04:56:22.740Z,95771.06
2023-02-25T04:58:51.244Z,95786.28
2023-02-25T05:01:19.731Z,95794.41
2023-02-25T05:03:47.876Z,95782.63
2023-02-25T05:06:16.010Z,95796.00
2023-02-25T05:08:44.113Z,95794.84
2023-02-25T05:11:13.635Z,95810.53
2023-02-25T05:13:41.708Z,95813.97
2023-02-25T05:16:12.855Z,95821.44
2023-02-25T05:18:42.677Z,95818.94
2023-02-25T05:21:12.387Z,95822.31
2023-02-25T05:23:40.508Z,95811.41
2023-02-25T05:26:09.403Z,95815.50
2023-02-25T05:28:39.515Z,95824.38
2023-02-25T05:31:08.804Z,95853.00
2023-02-25T05:33:37.860Z,95852.53
2023-02-25T05:36:07.485Z,95859.84
2023-02-25T05:38:36.843Z,95874.41
2023-02-25T05:41:07.004Z,95886.63
2023-02-25T05:43:36.174Z,95891.25
2023-02-25T05:46:11.593Z,95899.44
2023-02-25T05:48:41.309Z,95905.22
2023-02-25T05:51:11.914Z,95895.84
2023-02-25T05:53:40.357Z,95905.38
2023-02-25T05:56:10.229Z,95911.19
2023-02-25T05:58:38.404Z,95901.94
2023-02-25T06:01:11.530Z,95906.69
2023-02-25T06:03:40.747Z,95906.63
2023-02-25T06:06:10.453Z,95905.19
2023-02-25T06:08:39.619Z,95904.72
2023-02-25T06:11:08.563Z,95904.94
2023-02-25T06:13:36.968Z,95921.09
2023-02-25T06:16:06.014Z,95925.44
2023-02-25T06:18:40.080Z,95938.78
2023-02-25T06:21:11.317Z,95937.66
2023-02-25T06:23:41.087Z,95945.78
2023-02-25T06:26:12.210Z,95936.16
2023-02-25T06:28:40.381Z,95943.88
2023-02-25T06:31:10.444Z,95944.53
2023-02-25T06:33:40.380Z,95945.00
2023-02-25T06:36:09.455Z,95947.47
2023-02-25T06:38:37.777Z,95950.31
2023-02-25T06:41:10.178Z,95947.91
2023-02-25T06:43:39.561Z,95949.47
2023-02-25T06:46:09.385Z,95953.16
2023-02-25T06:48:40.888Z,95953.34
2023-02-25T06:51:11.907Z,95957.00
2023-02-25T06:56:42.709Z,95961.91
2023-02-25T06:59:11.049Z,95965.03
2023-02-25T07:01:39.521Z,95964.81
2023-02-25T07:04:09.194Z,95962.84
2023-02-25T07:06:37.961Z,95960.34
2023-02-25T07:09:10.079Z,95968.19
2023-02-25T07:11:40.905Z,95971.44
2023-02-25T07:14:14.602Z,95956.53
2023-02-25T07:16:42.733Z,95973.09
2023-02-25T07:19:17.778Z,95973.09
2023-02-25T07:21:52.720Z,95966.78
2023-02-25T07:24:21.119Z,95965.75
2023-02-25T07:26:49.422Z,95975.88
2023-02-25T07:29:17.563Z,95982.75
2023-02-25T07:31:46.183Z,95969.81
2023-02-25T07:34:16.242Z,95970.69
2023-02-25T07:36:44.471Z,95954.88
2023-02-25T07:39:13.551Z,95972.97
2023-02-25T07:41:44.662Z,95976.28
2023-02-25T07:44:13.641Z,95971.19
2023-02-25T07:46:42.945Z,95984.03
2023-02-25T07:49:11.114Z,95972.03
2023-02-25T07:51:43.470Z,95990.13
2023-02-25T07:54:11.736Z,95978.88
2023-02-25T07:56:39.852Z,95972.28
2023-02-25T07:59:07.956Z,95983.09
2023-02-25T08:01:37.510Z,95977.44
2023-02-25T08:04:07.699Z,95972.44
2023-02-25T08:06:37.688Z,95965.91
2023-02-25T08:09:07.621Z,95982.47
2023-02-25T08:11:36.009Z,95990.47
2023-02-25T08:14:04.979Z,95990.22
2023-02-25T08:16:34.332Z,95995.91
2023-02-25T08:19:02.469Z,95975.81
2023-02-25T08:21:31.433Z,95984.53
2023-02-25T08:24:00.388Z,95985.88
2023-02-25T08:26:30.058Z,95989.50
2023-02-25T08:28:58.706Z,95981.81
2023-02-25T08:31:27.767Z,95979.41
2023-02-25T08:33:57.319Z,95986.63
2023-02-25T08:36:26.953Z,95989.03
2023-02-25T08:38:57.459Z,95982.66
2023-02-25T08:41:27.426Z,95979.38
2023-02-25T08:43:58.279Z,95980.78
2023-02-25T08:46:29.509Z,95986.03
2023-02-25T08:48:58.468Z,95976.88
2023-02-25T08:51:34.275Z,95971.88
2023-02-25T08:54:04.854Z,95973.19
2023-02-25T08:56:33.180Z,95979.41
2023-02-25T08:59:03.005Z,95974.03
2023-02-25T09:01:45.005Z,95973.84
2023-02-25T09:04:14.405Z,95957.75
2023-02-25T09:06:42.498Z,95948.38
2023-02-25T09:09:12.405Z,95962.88
2023-02-25T09:11:41.010Z,95960.97
2023-02-25T09:14:11.568Z,95956.22
2023-02-25T09:16:39.835Z,95942.31
2023-02-25T09:19:08.138Z,95939.13
2023-02-25T09:21:37.192Z,95937.28
2023-02-25T09:24:05.802Z,95940.19
2023-02-25T09:26:34.087Z,95952.53
2023-02-25T09:29:02.324Z,95942.47
2023-02-25T09:31:33.797Z,95942.03
2023-02-25T09:34:04.667Z,95944.28
2023-02-25T09:36:33.502Z,95943.00
2023-02-25T09:39:01.949Z,95941.38
2023-02-25T09:41:36.473Z,95937.34
2023-02-25T09:44:08.644Z,95930.03
2023-02-25T09:46:41.837Z,95929.47
2023-02-25T09:49:16.734Z,95923.59
2023-02-25T09:51:50.414Z,95922.75
2023-02-25T09:54:24.368Z,95923.53
2023-02-25T09:56:55.647Z,95913.03
2023-02-25T09:59:24.597Z,95907.38
2023-02-25T10:01:58.347Z,95919.47
2023-02-25T10:04:33.682Z,95912.84
2023-02-25T10:07:09.595Z,95916.56
2023-02-25T10:09:46.577Z,95909.91
2023-02-25T10:12:27.428Z,95916.63
2023-02-25T10:15:22.002Z,95903.91
2023-02-25T10:18:07.070Z,95900.63
2023-02-25T10:20:53.212Z,95888.06
2023-02-25T10:23:37.915Z,95879.69
2023-02-25T10:26:13.411Z,95873.66
2023-02-25T10:28:44.112Z,95882.53
2023-02-25T10:31:18.595Z,95886.63
2023-02-25T10:33:50.670Z,95879.59
2023-02-25T10:36:20.753Z,95865.47
2023-02-25T10:38:51.083Z,95874.72
2023-02-25T10:41:22.746Z,95863.41
2023-02-25T10:43:52.689Z,95869.44
2023-02-25T10:46:27.158Z,95857.72
2023-02-25T10:49:00.399Z,95871.69
2023-02-25T10:51:29.926Z,95854.84
2023-02-25T10:54:06.509Z,95850.91
2023-02-25T10:56:42.617Z,95845.47
2023-02-25T10:59:31.253Z,95844.78
2023-02-25T11:02:01.476Z,95842.44
2023-02-25T11:04:36.371Z,95818.03
2023-02-25T11:07:25.757Z,95830.78
2023-02-25T11:10:09.344Z,95829.81
2023-02-25T11:12:42.373Z,95828.38
2023-02-25T11:15:43.078Z,95821.94
2023-02-25T11:18:21.771Z,95820.97
2023-02-25T11:20:54.735Z,95818.56
2023-02-25T11:23:28.174Z,95813.25
2023-02-25T11:25:57.577Z,95818.63
2023-02-25T11:28:32.393Z,95800.94
2023-02-25T11:31:19.684Z,95795.34
2023-02-25T11:33:52.836Z,95795.41
2023-02-25T11:36:31.112Z,95807.25
2023-02-25T11:39:17.203Z,95777.75
2023-02-25T11:41:46.609Z,95776.47
2023-02-25T11:44:24.295Z,95781.28
2023-02-25T11:47:00.153Z,95773.19
2023-02-25T11:49:47.743Z,95762.75
2023-02-25T11:52:24.177Z,95777.84
2023-02-25T11:55:12.762Z,95767.34
2023-02-25T11:57:48.489Z,95757.97
2023-02-25T12:00:25.682Z,95766.09
2023-02-25T12:03:36.127Z,95761.44
2023-02-25T12:06:17.447Z,95757.44
2023-02-25T12:09:34.006Z,95769.25
2023-02-25T12:12:33.626Z,95767.59
2023-02-25T12:15:43.234Z,95770.84
2023-02-25T12:19:04.384Z,95753.50
2023-02-25T12:22:13.197Z,95757.94
2023-02-25T12:24:57.931Z,95750.03
2023-02-25T12:28:01.631Z,95765.50
2023-02-25T12:30:54.761Z,95754.31
2023-02-25T12:33:34.813Z,95756.66
2023-02-25T12:36:27.658Z,95755.78
2023-02-25T12:39:33.952Z,95750.63
2023-02-25T12:42:21.326Z,95739.09
2023-02-25T12:45:23.891Z,95748.16
2023-02-25T12:48:06.532Z,95745.09
2023-02-25T12:50:58.897Z,95754.00
2023-02-25T12:53:38.678Z,95755.91
2023-02-25T12:56:34.505Z,95762.25
2023-02-25T12:59:22.742Z,95763.75
2023-02-25T13:02:02.134Z,95751.22
2023-02-25T13:04:42.859Z,95765.28
2023-02-25T13:07:48.277Z,95770.94
2023-02-25T13:10:38.484Z,95772.09
2023-02-25T13:13:42.843Z,95772.34
2023-02-25T13:16:28.460Z,95777.25
2023-02-25T13:19:12.815Z,95768.41
2023-02-25T13:21:56.466Z,95762.34
2023-02-25T13:24:49.177Z,95778.75
2023-02-25T13:27:44.179Z,95794.38
2023-02-25T13:30:27.449Z,95786.41
2023-02-25T13:33:12.637Z,95800.34
2023-02-25T13:35:55.130Z,95785.91
2023-02-25T13:38:41.598Z,95789.66
2023-02-25T13:41:28.113Z,95809.06
2023-02-25T13:44:19.200Z,95813.25
2023-02-25T13:47:04.160Z,95819.38
2023-02-25T13:49:55.970Z,95824.22
2023-02-25T13:52:31.683Z,95827.88
2023-02-25T13:55:37.046Z,95839.88
2023-02-25T13:58:37.419Z,95836.50
2023-02-25T14:01:43.526Z,95833.28
2023-02-25T14:05:00.434Z,95838.47
2023-02-25T14:07:47.202Z,95844.59
2023-02-25T14:10:46.607Z,95845.97
2023-02-25T14:13:59.511Z,95839.63
2023-02-25T14:16:46.835Z,95846.53
2023-02-25T14:19:30.483Z,95848.69
2023-02-25T14:22:24.411Z,95842.00
2023-02-25T14:25:07.502Z,95852.59
2023-02-25T14:27:42.241Z,95853.97
2023-02-25T14:30:25.292Z,95846.84
2023-02-25T14:33:06.728Z,95861.41
2023-02-25T14:35:53.595Z,95852.06
2023-02-25T14:38:38.379Z,95856.41
2023-02-25T14:41:29.673Z,95861.44
2023-02-25T14:44:05.216Z,95865.88
2023-02-25T14:46:40.439Z,95864.56
2023-02-25T14:49:15.126Z,95866.84
2023-02-25T14:52:20.960Z,95862.75
2023-02-25T14:55:31.324Z,95870.31
2023-02-25T14:58:45.740Z,95876.44
2023-02-25T15:02:07.199Z,95892.16
2023-02-25T15:05:16.607Z,95899.84
2023-02-25T15:08:19.136Z,95902.09
2023-02-25T15:11:12.495Z,95908.78
2023-02-25T15:14:20.400Z,95905.72
2023-02-25T15:17:22.004Z,95898.34
2023-02-25T15:20:15.566Z,95925.78
2023-02-25T15:22:56.988Z,95930.13
2023-02-25T15:25:39.877Z,95930.94
2023-02-25T15:28:41.186Z,95932.50
2023-02-25T15:31:30.387Z,95927.66
2023-02-25T15:34:36.398Z,95939.03
2023-02-25T15:37:33.376Z,95943.53
2023-02-25T15:40:24.484Z,95953.38
2023-02-25T15:42:55.470Z,95955.22
2023-02-25T15:45:39.790Z,95951.69
2023-02-25T15:48:35.449Z,95950.22
2023-02-25T15:51:10.414Z,95947.44
2023-02-25T15:53:48.822Z,95934.63
2023-02-25T15:56:48.247Z,95945.78
2023-02-25T15:59:49.847Z,95957.31
2023-02-25T16:02:54.376Z,95966.75
2023-02-25T16:08:27.098Z,95982.53
2023-02-25T16:11:00.425Z,95984.66
2023-02-25T16:13:33.275Z,95990.38
2023-02-25T16:16:07.820Z,95990.13
2023-02-25T16:18:43.565Z,95993.63
2023-02-25T16:21:22.492Z,95983.69
2023-02-25T16:23:55.162Z,96010.59
2023-02-25T16:26:37.381Z,96037.91
2023-02-25T16:29:25.275Z,96054.78
2023-02-25T16:32:03.519Z,96052.97
2023-02-25T16:34:41.551Z,96058.34
2023-02-25T16:37:18.976Z,96060.00
2023-02-25T16:39:50.313Z,96060.25
2023-02-25T16:42:21.912Z,96064.97
2023-02-25T16:45:00.769Z,96055.41
2023-02-25T16:47:32.772Z,96073.53
2023-02-25T16:50:08.428Z,96084.78
2023-02-25T16:52:41.745Z,96094.84
2023-02-25T16:55:21.985Z,96104.06
2023-02-25T16:58:04.412Z,96109.94
2023-02-25T17:00:34.836Z,96114.28
2023-02-25T17:03:12.622Z,96120.31
2023-02-25T17:05:41.411Z,96126.19
2023-02-25T17:08:17.171Z,96129.56
2023-02-25T17:10:49.994Z,96137.81
2023-02-25T17:13:25.420Z,96153.72
2023-02-25T17:15:56.052Z,96165.06
2023-02-25T17:18:31.194Z,96162.53
2023-02-25T17:21:07.323Z,96159.28
2023-02-25T17:23:42.216Z,96157.50
2023-02-25T17:26:17.507Z,96161.59
2023-02-25T17:28:49.063Z,96160.00
2023-02-25T17:31:19.244Z,96163.03
2023-02-25T17:33:50.782Z,96173.50
2023-02-25T17:36:23.171Z,96174.16
2023-02-25T17:38:58.038Z,96186.94
2023-02-25T17:41:30.115Z,96185.09
2023-02-25T17:43:59.677Z,96181.69
2023-02-25T17:46:36.348Z,96186.28
2023-02-25T17:49:15.211Z,96172.88
2023-02-25T17:51:44.724Z,96189.13
2023-02-25T17:54:20.345Z,96191.03
2023-02-25T17:56:58.400Z,96185.44
2023-02-25T17:59:42.605Z,96194.13
2023-02-25T18:02:35.919Z,96207.91
2023-02-25T18:05:27.861Z,96198.94
2023-02-25T18:08:18.825Z,96206.72
2023-02-25T18:10:52.554Z,96219.59
2023-02-25T18:13:27.979Z,96224.56
2023-02-25T18:16:35.685Z,96213.28
2023-02-25T18:19:11.650Z,96196.81
2023-02-25T18:21:44.762Z,96181.31
2023-02-25T18:24:26.850Z,96178.94
2023-02-25T18:27:10.862Z,96156.88
2023-02-25T18:29:42.762Z,96165.22
2023-02-25T18:32:13.538Z,96168.16
2023-02-25T18:34:43.400Z,96137.69
2023-02-25T18:37:17.618Z,96151.25
2023-02-25T18:39:49.270Z,96178.94
2023-02-25T18:42:20.349Z,96190.81
2023-02-25T18:44:51.395Z,96198.03
2023-02-25T18:47:20.595Z,96183.91
2023-02-25T18:49:49.692Z,96195.78
2023-02-25T18:52:24.121Z,96196.34
2023-02-25T18:54:53.743Z,96206.56
2023-02-25T18:57:25.686Z,96204.03
2023-02-25T18:59:58.554Z,96193.16
2023-02-25T19:02:32.462Z,96201.03
2023-02-25T19:05:03.439Z,96198.97
2023-02-25T19:07:36.054Z,96207.75
2023-02-25T19:10:08.913Z,96198.22
2023-02-25T19:12:41.558Z,96194.47
2023-02-25T19:15:16.317Z,96177.72
2023-02-25T19:17:46.772Z,96189.97
2023-02-25T19:20:17.858Z,96196.16
2023-02-25T19:22:49.570Z,96214.75
2023-02-25T19:25:23.825Z,96219.94
2023-02-25T19:27:55.759Z,96240.69
2023-02-25T19:30:30.393Z,96236.06
2023-02-25T19:33:04.331Z,96227.63
2023-02-25T19:35:36.386Z,96248.34
2023-02-25T19:38:07.982Z,96249.72
2023-02-25T19:40:38.875Z,96236.53
2023-02-25T19:43:08.893Z,96253.00
2023-02-25T19:45:40.840Z,96273.91
2023-02-25T19:48:10.833Z,96275.22
2023-02-25T19:50:43.383Z,96267.63
2023-02-25T19:53:13.492Z,96256.28
2023-02-25T19:55:45.282Z,96238.28
2023-02-25T19:58:15.154Z,96212.53
2023-02-25T20:00:47.401Z,96203.09
2023-02-25T20:03:17.282Z,96212.59
2023-02-25T20:05:46.818Z,96217.69
2023-02-25T20:08:17.151Z,96215.50
2023-02-25T20:10:47.164Z,96252.31
2023-02-25T20:13:16.786Z,96267.97
2023-02-25T20:15:48.413Z,96249.72
2023-02-25T20:18:18.238Z,96266.44
2023-02-25T20:20:46.851Z,96294.19
2023-02-25T20:23:16.444Z,96302.31
2023-02-25T20:25:49.098Z,96303.16
2023-02-25T20:28:24.571Z,96291.47
2023-02-25T20:31:05.777Z,96293.00
2023-02-25T20:33:38.654Z,96301.97
2023-02-25T20:36:21.307Z,96317.56
2023-02-25T20:39:13.342Z,96311.28
2023-02-25T20:41:45.957Z,96292.28
2023-02-25T20:44:16.810Z,96272.75
2023-02-25T20:46:48.347Z,96272.38
2023-02-25T20:49:20.671Z,96267.16
2023-02-25T20:51:52.444Z,96279.88
2023-02-25T20:54:22.909Z,96289.00
2023-02-25T20:56:52.208Z,96303.16
2023-02-25T20:59:22.580Z,96317.69
2023-02-25T21:01:53.183Z,96328.34
2023-02-25T21:04:23.054Z,96327.50
2023-02-25T21:06:52.447Z,96331.63
2023-02-25T21:09:25.297Z,96331.81
2023-02-25T21:11:57.530Z,96327.06
2023-02-25T21:14:27.649Z,96329.69
2023-02-25T21:17:00.771Z,96320.66
2023-02-25T21:19:29.736Z,96325.13
2023-02-25T21:21:58.699Z,96336.03
2023-02-25T21:24:29.628Z,96338.75
2023-02-25T21:26:59.271Z,96351.22
2023-02-25T21:29:32.495Z,96347.00
2023-02-25T21:32:03.163Z,96350.88
2023-02-25T21:34:33.573Z,96360.94
2023-02-25T21:37:02.950Z,96364.75
2023-02-25T21:39:32.540Z,96339.22
2023-02-25T21:42:01.431Z,96344.81
2023-02-25T21:44:29.991Z,96357.53
2023-02-25T21:46:59.291Z,96359.81
2023-02-25T21:49:31.511Z,96372.50
2023-02-25T21:52:01.989Z,96387.03
2023-02-25T21:54:30.848Z,96377.75
2023-02-25T21:56:59.588Z,96398.75
2023-02-25T21:59:28.878Z,96397.88
2023-02-25T22:01:57.438Z,96386.72
2023-02-25T22:04:25.809Z,96380.03
2023-02-25T22:06:59.218Z,96359.34
2023-02-25T22:09:34.038Z,96353.28
2023-02-25T22:12:02.475Z,96337.75
2023-02-25T22:14:30.642Z,96342.28
2023-02-25T22:17:01.584Z,96338.28
2023-02-25T22:19:30.068Z,96354.13
2023-02-25T22:21:59.724Z,96360.94
2023-02-25T22:24:27.897Z,96347.66
2023-02-25T22:26:56.049Z,96338.09
2023-02-25T22:29:24.381Z,96334.88
2023-02-25T22:31:52.863Z,96363.78
2023-02-25T22:34:21.722Z,96364.50
2023-02-25T22:36:49.866Z,96367.75
2023-02-25T22:39:19.389Z,96365.78
2023-02-25T22:41:47.552Z,96376.16
2023-02-25T22:44:15.766Z,96374.63
2023-02-25T22:46:44.276Z,96373.38
2023-02-25T22:49:13.014Z,96370.00
2023-02-25T22:51:42.863Z,96378.91
2023-02-25T22:54:11.516Z,96381.56
2023-02-25T22:56:41.627Z,96373.97
2023-02-25T22:59:10.556Z,96380.53
2023-02-25T23:01:39.265Z,96384.06
2023-02-25T23:04:08.534Z,96381.75
2023-02-25T23:06:43.835Z,96389.69
2023-02-25T23:09:13.314Z,96395.91
2023-02-25T23:11:44.233Z,96402.84
2023-02-25T23:14:12.619Z,96409.81
2023-02-25T23:16:42.701Z,96405.06
2023-02-25T23:19:13.523Z,96414.44
2023-02-25T23:21:41.969Z,96418.81
2023-02-25T23:24:14.000Z,96440.47
2023-02-25T23:26:44.436Z,96450.22
2023-02-25T23:29:13.373Z,96458.72
2023-02-25T23:31:44.389Z,96452.06
2023-02-25T23:34:14.913Z,96462.22
2023-02-25T23:36:44.486Z,96449.50
2023-02-25T23:39:14.130Z,96446.66
2023-02-25T23:41:44.204Z,96428.53
2023-02-25T23:44:13.608Z,96427.59
2023-02-25T23:46:44.964Z,96412.06
2023-02-25T23:49:15.031Z,96403.16
2023-02-25T23:51:44.518Z,96403.88
2023-02-25T23:54:16.480Z,96415.72
2023-02-25T23:56:46.521Z,96422.81
2023-02-25T23:59:15.011Z,96424.88
